Time;durP1;ratioP1;P1;durP2;ratioP2;P2;SDS_P1;SDS_P2;PMS_P1;PMS_P2;Temp;Humidity;BMP_temperature;BMP_pressure;BME280_temperature;BME280_humidity;BME280_pressure;Samples;Min_cycle;Max_cycle;Signal;HPM_P1;HPM_P2
2022/06/20 00:02:20;;;;;;;7.78;2.22;;;14.90;79.80;;;;;;5073541;28;20036;-41
2022/06/20 00:04:47;;;;;;;3.60;1.90;;;15.00;79.20;;;;;;5072589;28;20032;-38
2022/06/20 00:07:13;;;;;;;4.10;1.60;;;15.00;78.90;;;;;;5073709;28;20054;-39
2022/06/20 00:09:40;;;;;;;5.47;1.83;;;15.10;78.40;;;;;;5073874;28;20028;-37
2022/06/20 00:12:06;;;;;;;3.08;1.70;;;15.20;77.50;;;;;;5073508;28;20066;-38
2022/06/20 00:14:32;;;;;;;6.82;1.75;;;15.10;77.60;;;;;;5073725;28;20099;-38
2022/06/20 00:16:57;;;;;;;2.80;1.35;;;15.20;78.50;;;;;;5073060;28;20404;-38
2022/06/20 00:19:23;;;;;;;5.18;1.90;;;15.20;78.10;;;;;;5073523;28;20031;-37
2022/06/20 00:21:49;;;;;;;2.40;1.55;;;15.00;77.90;;;;;;5073239;28;20102;-37
2022/06/20 00:24:15;;;;;;;6.20;1.90;;;15.00;78.50;;;;;;5073296;28;20017;-38
2022/06/20 00:26:40;;;;;;;4.80;1.67;;;15.00;78.50;;;;;;5073576;28;20085;-51
2022/06/20 00:29:07;;;;;;;4.28;2.50;;;15.00;78.50;;;;;;5073351;28;20020;-48
2022/06/20 00:31:35;;;;;;;3.67;1.98;;;14.90;78.50;;;;;;5073768;28;20059;-48
2022/06/20 00:34:01;;;;;;;5.20;2.42;;;14.70;79.00;;;;;;5073699;28;20024;-47
2022/06/20 00:36:27;;;;;;;8.30;1.95;;;14.70;79.60;;;;;;5073645;28;20433;-48
2022/06/20 00:38:55;;;;;;;2.05;1.95;;;14.70;79.50;;;;;;5073267;28;20033;-49
2022/06/20 00:41:34;;;;;;;5.45;1.77;;;14.80;79.60;;;;;;5073274;28;20021;-48
2022/06/20 00:44:01;;;;;;;7.30;2.00;;;14.80;79.60;;;;;;5073499;28;20500;-48
2022/06/20 00:46:49;;;;;;;2.78;1.58;;;14.80;79.60;;;;;;5072040;28;20502;-47
2022/06/20 00:49:17;;;;;;;3.20;2.17;;;14.80;79.80;;;;;;5073631;28;20372;-49
2022/06/20 00:51:55;;;;;;;6.57;2.63;;;14.80;79.90;;;;;;5073504;28;20057;-48
2022/06/20 00:54:29;;;;;;;8.18;2.30;;;14.70;80.40;;;;;;5073888;28;20029;-50
2022/06/20 00:57:11;;;;;;;4.45;2.15;;;14.70;80.60;;;;;;5073455;28;20380;-47
2022/06/20 00:59:50;;;;;;;4.28;1.95;;;14.70;81.00;;;;;;5073530;28;20376;-49
2022/06/20 01:02:23;;;;;;;4.07;1.88;;;14.60;81.30;;;;;;5073499;28;20036;-48
2022/06/20 01:04:58;;;;;;;5.57;2.40;;;14.40;81.70;;;;;;5076997;28;20020;-48
2022/06/20 01:07:48;;;;;;;4.68;1.92;;;14.40;82.00;;;;;;5075539;28;20025;-48
2022/06/20 01:10:15;;;;;;;6.13;1.93;;;14.40;82.40;;;;;;5075304;28;20052;-49
2022/06/20 01:13:01;;;;;;;5.50;2.40;;;14.40;82.70;;;;;;5076822;28;20267;-48
2022/06/20 01:15:35;;;;;;;9.25;3.22;;;14.30;82.80;;;;;;5076286;28;20056;-49
2022/06/20 01:18:03;;;;;;;4.68;2.30;;;14.30;83.10;;;;;;5076362;28;20050;-47
2022/06/20 01:20:33;;;;;;;4.13;2.35;;;14.20;83.20;;;;;;5074954;28;20032;-48
2022/06/20 01:23:11;;;;;;;;;;;14.30;83.40;;;;;;5076529;28;20092;-48
2022/06/20 01:25:55;;;;;;;5.05;2.63;;;14.40;83.50;;;;;;5076411;28;19905;-49
2022/06/20 01:28:27;;;;;;;7.47;2.53;;;14.50;83.60;;;;;;5076127;28;20080;-47
2022/06/20 01:30:55;;;;;;;4.40;2.25;;;14.40;83.80;;;;;;5076079;28;20507;-48
2022/06/20 01:33:22;;;;;;;5.00;3.88;;;14.40;84.50;;;;;;5076359;28;20020;-48
2022/06/20 01:38:35;;;;;;;5.88;2.47;;;14.20;86.00;;;;;;5076688;28;20113;-49
2022/06/20 01:43:47;;;;;;;5.35;3.30;;;14.20;86.70;;;;;;5076019;28;20534;-46
2022/06/20 01:46:13;;;;;;;5.53;3.55;;;14.30;86.50;;;;;;5075968;28;20031;-48
2022/06/20 01:48:43;;;;;;;8.23;2.70;;;14.20;86.30;;;;;;5074303;28;20024;-48
2022/06/20 01:51:22;;;;;;;6.87;3.50;;;14.30;86.80;;;;;;5075790;28;20032;-48
2022/06/20 01:53:50;;;;;;;9.45;3.70;;;14.20;86.40;;;;;;5075905;28;20036;-48
2022/06/20 01:56:18;;;;;;;6.72;3.10;;;14.30;86.70;;;;;;5075922;28;20023;-48
2022/06/20 01:58:56;;;;;;;3.78;2.75;;;14.30;86.70;;;;;;5075506;28;20013;-49
2022/06/20 02:01:21;;;;;;;7.78;3.45;;;14.10;86.90;;;;;;5074405;28;20074;-48
2022/06/20 02:03:47;;;;;;;4.10;2.75;;;14.10;87.30;;;;;;5074219;28;20024;-48
2022/06/20 02:06:17;;;;;;;7.65;3.10;;;14.10;87.20;;;;;;5075885;28;20034;-48
2022/06/20 02:08:46;;;;;;;7.10;4.72;;;14.10;87.50;;;;;;5075382;28;20039;-48
2022/06/20 02:11:38;;;;;;;6.72;2.90;;;14.20;87.10;;;;;;5075643;28;20044;-47
2022/06/20 02:14:17;;;;;;;6.15;3.03;;;14.30;87.10;;;;;;5074462;28;20039;-49
2022/06/20 02:16:47;;;;;;;9.48;3.95;;;14.30;86.80;;;;;;5075139;28;20048;-48
2022/06/20 02:19:19;;;;;;;6.00;2.50;;;14.40;86.70;;;;;;5074418;28;20406;-49
2022/06/20 02:21:47;;;;;;;10.45;2.83;;;14.50;86.40;;;;;;5075907;28;20025;-48
2022/06/20 02:24:16;;;;;;;2.40;1.70;;;14.70;86.00;;;;;;5075178;28;20020;-50
2022/06/20 02:26:45;;;;;;;5.30;1.80;;;14.50;84.50;;;;;;5075213;28;20541;-47
2022/06/20 02:29:20;;;;;;;6.38;3.08;;;14.40;84.00;;;;;;5075320;28;20043;-48
2022/06/20 02:31:47;;;;;;;7.05;3.95;;;14.30;84.50;;;;;;5073687;28;20081;-48
2022/06/20 02:34:13;;;;;;;7.35;2.63;;;14.30;85.10;;;;;;5075275;28;20074;-49
2022/06/20 02:36:39;;;;;;;8.70;2.33;;;14.20;85.90;;;;;;5075047;28;20461;-48
2022/06/20 02:39:05;;;;;;;3.90;2.22;;;14.10;86.00;;;;;;5077517;28;20074;-48
2022/06/20 02:41:32;;;;;;;3.97;2.35;;;14.10;86.10;;;;;;5076789;28;20025;-48
2022/06/20 02:44:05;;;;;;;6.25;2.47;;;13.90;85.90;;;;;;5074545;28;20035;-49
2022/06/20 02:46:31;;;;;;;4.13;2.40;;;13.90;86.20;;;;;;5075603;28;20056;-48
2022/06/20 02:49:01;;;;;;;5.80;3.10;;;13.90;86.30;;;;;;5074640;28;20520;-52
2022/06/20 02:51:35;;;;;;;6.72;2.95;;;13.90;86.40;;;;;;5074819;28;20081;-51
2022/06/20 02:54:03;;;;;;;2.47;2.10;;;13.80;86.80;;;;;;5074331;28;20029;-49
2022/06/20 02:56:34;;;;;;;7.85;2.70;;;13.80;86.70;;;;;;5073462;28;20033;-48
2022/06/20 02:59:12;;;;;;;5.63;2.47;;;13.80;86.70;;;;;;5074543;28;20032;-48
2022/06/20 03:01:46;;;;;;;5.13;2.42;;;13.80;86.50;;;;;;5074161;28;20328;-48
2022/06/20 03:04:12;;;;;;;5.10;3.15;;;13.70;86.70;;;;;;5074471;28;20025;-48
2022/06/20 03:06:42;;;;;;;7.38;2.75;;;13.60;86.90;;;;;;5074065;28;20069;-47
2022/06/20 03:09:12;;;;;;;12.27;2.53;;;13.50;86.70;;;;;;5073972;28;20025;-47
2022/06/20 20:20:07;;;;;;;4.57;2.08;;;17.40;55.10;;;;;;5152759;27;20422;-48
2022/06/20 20:22:41;;;;;;;6.78;1.92;;;17.30;55.40;;;;;;5151954;27;20027;-49
2022/06/20 20:25:32;;;;;;;4.78;1.65;;;17.30;55.50;;;;;;5151758;27;20026;-51
2022/06/20 20:28:22;;;;;;;3.97;1.52;;;17.30;55.60;;;;;;5152027;27;20019;-49
2022/06/20 20:31:12;;;;;;;3.95;1.80;;;17.30;55.70;;;;;;5151930;27;20023;-48
2022/06/20 20:34:12;;;;;;;4.95;2.00;;;17.30;55.70;;;;;;5152055;27;20062;-49
2022/06/20 20:37:15;;;;;;;3.17;1.83;;;17.30;55.80;;;;;;5152073;27;20489;-49
2022/06/20 20:40:07;;;;;;;8.07;2.33;;;17.30;56.10;;;;;;5151505;27;20057;-49
2022/06/20 20:43:10;;;;;;;5.75;2.40;;;17.30;56.30;;;;;;5151878;27;20027;-49
2022/06/20 20:46:13;;;;;;;4.25;2.00;;;17.30;56.00;;;;;;5151999;27;20027;-50
2022/06/20 20:48:44;;;;;;;3.88;2.35;;;17.30;56.10;;;;;;5150350;27;20068;-52
2022/06/20 20:51:13;;;;;;;;;;;17.20;56.20;;;;;;5152289;27;20098;-49
2022/06/20 20:53:47;;;;;;;5.03;2.10;;;17.20;56.20;;;;;;5151111;27;19903;-48
2022/06/20 20:56:20;;;;;;;2.85;1.83;;;17.00;56.50;;;;;;5151747;27;20374;-50
2022/06/20 20:59:14;;;;;;;9.20;3.15;;;17.00;56.90;;;;;;5150263;27;20051;-50
2022/06/20 21:01:43;;;;;;;5.63;1.88;;;16.90;57.10;;;;;;5151441;27;20019;-49
2022/06/20 21:04:30;;;;;;;5.70;3.22;;;16.90;57.20;;;;;;5151145;27;20010;-51
2022/06/20 21:07:03;;;;;;;3.58;2.03;;;16.80;57.40;;;;;;5151634;27;20102;-50
2022/06/20 21:09:36;;;;;;;3.97;1.63;;;16.80;57.70;;;;;;5151377;27;20046;-47
2022/06/20 21:12:04;;;;;;;4.95;2.17;;;16.70;57.90;;;;;;5150191;27;20072;-50
2022/06/20 21:14:41;;;;;;;2.58;1.67;;;16.60;58.30;;;;;;5151016;27;20038;-48
2022/06/20 21:17:08;;;;;;;3.53;1.50;;;16.60;58.60;;;;;;5151855;27;20029;-51
2022/06/20 21:19:34;;;;;;;6.43;2.00;;;16.60;58.70;;;;;;5151347;27;20065;-49
2022/06/20 21:22:06;;;;;;;2.92;1.95;;;16.50;58.90;;;;;;5151999;27;20019;-50
2022/06/20 21:24:39;;;;;;;2.38;1.88;;;16.40;59.00;;;;;;5151953;27;20474;-50
2022/06/20 21:27:08;;;;;;;10.65;2.05;;;16.40;59.40;;;;;;5151622;27;20034;-50
2022/06/20 21:29:35;;;;;;;2.53;1.70;;;16.30;59.50;;;;;;5147107;27;20435;-50
2022/06/20 21:32:09;;;;;;;9.88;1.92;;;16.30;59.60;;;;;;5137262;27;20404;-50
2022/06/20 21:34:47;;;;;;;5.25;2.08;;;16.30;59.70;;;;;;5136298;27;20076;-50
2022/06/20 21:37:27;;;;;;;4.25;2.53;;;16.30;59.90;;;;;;5136456;27;20027;-48
2022/06/20 21:39:55;;;;;;;3.75;3.42;;;16.20;60.30;;;;;;5137575;27;20023;-49
2022/06/20 21:42:22;;;;;;;5.28;2.83;;;16.10;60.80;;;;;;5137122;27;20019;-50
2022/06/20 21:44:56;;;;;;;6.60;2.28;;;16.00;61.00;;;;;;5137718;27;20019;-48
2022/06/20 21:47:30;;;;;;;4.95;2.10;;;15.90;61.20;;;;;;5135675;27;20027;-48
2022/06/20 21:49:57;;;;;;;3.05;2.00;;;15.90;61.50;;;;;;5137475;27;20378;-48
2022/06/20 21:52:40;;;;;;;4.25;1.83;;;15.80;61.70;;;;;;5137233;27;20023;-49
2022/06/20 21:55:09;;;;;;;3.65;1.73;;;15.80;61.80;;;;;;5136629;27;20034;-48
2022/06/20 21:57:46;;;;;;;3.63;2.22;;;15.80;61.80;;;;;;5136361;27;20034;-49
2022/06/20 22:00:17;;;;;;;7.25;2.40;;;15.80;61.90;;;;;;5136681;27;20023;-49
2022/06/20 22:05:38;;;;;;;6.15;1.85;;;15.70;62.40;;;;;;5137635;27;20382;-49
2022/06/20 22:08:09;;;;;;;2.47;2.17;;;15.70;62.40;;;;;;5136884;27;20095;-48
2022/06/20 22:10:55;;;;;;;3.50;1.85;;;15.60;62.60;;;;;;5136498;27;20027;-49
2022/06/20 22:13:42;;;;;;;7.00;2.97;;;15.50;62.80;;;;;;5136498;27;20411;-48
2022/06/20 22:16:09;;;;;;;4.78;2.08;;;15.50;62.80;;;;;;5136117;27;20019;-48
2022/06/20 22:18:51;;;;;;;3.13;1.85;;;15.40;63.00;;;;;;5135866;27;20054;-50
2022/06/20 22:21:20;;;;;;;5.50;2.35;;;15.40;63.10;;;;;;5136232;27;20015;-49
2022/06/20 22:24:07;;;;;;;3.78;1.75;;;15.30;63.40;;;;;;5136564;27;20030;-48
2022/06/20 22:26:34;;;;;;;2.50;1.67;;;15.30;63.40;;;;;;5136071;27;20023;-48
2022/06/20 22:29:03;;;;;;;3.65;2.28;;;15.30;63.60;;;;;;5136415;27;20031;-48
2022/06/20 22:31:37;;;;;;;1.70;1.60;;;15.20;63.90;;;;;;5135977;27;20038;-50
2022/06/20 22:34:25;;;;;;;5.05;2.03;;;15.20;63.90;;;;;;5136080;27;20076;-49
2022/06/20 22:36:54;;;;;;;3.88;2.70;;;15.20;63.90;;;;;;5136270;27;20145;-50
2022/06/20 22:39:45;;;;;;;3.30;1.73;;;15.20;64.20;;;;;;5135990;27;20106;-48
2022/06/20 22:42:16;;;;;;;4.07;1.75;;;15.10;64.30;;;;;;5135052;27;20026;-49
2022/06/20 22:44:42;;;;;;;6.55;2.15;;;15.10;64.20;;;;;;5134470;27;20027;-50
2022/06/20 22:47:14;;;;;;;4.75;2.17;;;15.20;64.40;;;;;;5135662;27;20031;-48
2022/06/20 22:49:43;;;;;;;4.03;1.88;;;15.20;64.30;;;;;;5135629;27;20023;-47
2022/06/20 22:52:15;;;;;;;7.20;2.30;;;15.20;64.40;;;;;;5135751;27;20027;-48
2022/06/20 22:54:52;;;;;;;5.80;2.35;;;15.00;64.90;;;;;;5135364;27;20030;-51
2022/06/20 22:57:48;;;;;;;6.10;2.05;;;15.00;65.00;;;;;;5135434;27;20389;-48
2022/06/20 23:00:25;;;;;;;4.15;2.45;;;14.90;65.20;;;;;;5131994;27;20043;-48
2022/06/20 23:02:52;;;;;;;5.22;2.10;;;14.80;65.50;;;;;;5138535;27;20058;-48
2022/06/20 23:05:31;;;;;;;3.45;2.35;;;14.80;65.80;;;;;;5136242;27;20059;-48
2022/06/20 23:07:57;;;;;;;2.53;1.90;;;14.80;65.90;;;;;;5135555;27;20023;-49
2022/06/20 23:10:22;;;;;;;2.80;2.17;;;14.70;66.30;;;;;;5134170;27;20031;-48
2022/06/20 23:12:53;;;;;;;5.15;2.00;;;14.60;66.40;;;;;;5135141;27;20033;-51
2022/06/20 23:15:20;;;;;;;;;;;14.60;66.70;;;;;;5135049;27;20072;-48
2022/06/20 23:20:30;;;;;;;3.88;1.80;;;14.50;67.10;;;;;;5135724;27;20030;-47
2022/06/20 23:22:56;;;;;;;3.17;2.20;;;14.50;67.20;;;;;;5134731;27;20076;-48
2022/06/20 23:25:28;;;;;;;4.05;2.40;;;14.40;67.30;;;;;;5135138;27;20057;-48
2022/06/20 23:27:54;;;;;;;4.45;2.45;;;14.40;67.40;;;;;;5134983;27;20511;-47
2022/06/20 23:30:22;;;;;;;2.13;1.92;;;14.40;67.50;;;;;;5134932;27;20031;-48
2022/06/20 23:32:48;;;;;;;6.47;2.13;;;14.30;67.70;;;;;;5133350;27;20031;-48
2022/06/20 23:35:27;;;;;;;7.80;2.10;;;14.30;67.70;;;;;;5116107;27;20497;-48
2022/06/20 23:38:14;;;;;;;3.35;2.25;;;14.30;67.80;;;;;;5134760;27;20482;-50
2022/06/20 23:40:42;;;;;;;9.43;1.83;;;14.30;68.30;;;;;;5134495;27;20201;-48
2022/06/20 23:43:23;;;;;;;2.90;1.95;;;14.20;68.40;;;;;;5134878;27;20068;-48
2022/06/20 23:45:51;;;;;;;5.85;2.38;;;14.20;68.60;;;;;;5134753;27;20067;-48
2022/06/20 23:48:19;;;;;;;6.90;2.95;;;14.10;68.90;;;;;;5134631;27;20533;-50
2022/06/20 23:50:45;;;;;;;2.65;1.90;;;14.10;69.20;;;;;;5134330;27;20023;-49
2022/06/20 23:53:13;;;;;;;4.93;2.15;;;14.00;69.40;;;;;;5134184;27;20498;-50
2022/06/20 23:55:43;;;;;;;3.97;2.85;;;14.00;69.50;;;;;;5134342;27;20102;-48
2022/06/20 23:58:10;;;;;;;;;;;14.00;69.50;;;;;;5134971;27;20023;-49
